sensor_id;sensor_type;location;lat;lon;timestamp;P1;durP1;ratioP1;P2;durP2;ratioP2
78610;SDS011;67932;50.474;4.436;2023-03-26T00:00:11;9.90;;;1.75;;
78610;SDS011;67932;50.474;4.436;2023-03-26T00:02:38;12.48;;;2.25;;
78610;SDS011;67932;50.474;4.436;2023-03-26T00:05:05;7.43;;;1.88;;
78610;SDS011;67932;50.474;4.436;2023-03-26T00:07:31;7.75;;;2.92;;
78610;SDS011;67932;50.474;4.436;2023-03-26T00:09:57;11.00;;;2.90;;
78610;SDS011;67932;50.474;4.436;2023-03-26T00:12:24;10.75;;;3.05;;
78610;SDS011;67932;50.474;4.436;2023-03-26T00:14:50;9.52;;;2.00;;
78610;SDS011;67932;50.474;4.436;2023-03-26T00:17:17;9.73;;;1.90;;
78610;SDS011;67932;50.474;4.436;2023-03-26T00:19:43;5.53;;;2.17;;
78610;SDS011;67932;50.474;4.436;2023-03-26T00:22:09;10.00;;;1.95;;
78610;SDS011;67932;50.474;4.436;2023-03-26T00:24:38;8.40;;;2.25;;
78610;SDS011;67932;50.474;4.436;2023-03-26T00:27:04;8.52;;;1.85;;
78610;SDS011;67932;50.474;4.436;2023-03-26T00:29:30;7.43;;;2.00;;
78610;SDS011;67932;50.474;4.436;2023-03-26T00:31:57;11.68;;;2.70;;
78610;SDS011;67932;50.474;4.436;2023-03-26T00:34:24;9.05;;;2.22;;
78610;SDS011;67932;50.474;4.436;2023-03-26T00:36:50;8.65;;;2.60;;
78610;SDS011;67932;50.474;4.436;2023-03-26T00:39:20;8.52;;;2.05;;
78610;SDS011;67932;50.474;4.436;2023-03-26T00:41:47;11.70;;;1.92;;
78610;SDS011;67932;50.474;4.436;2023-03-26T00:44:18;8.45;;;2.10;;
78610;SDS011;67932;50.474;4.436;2023-03-26T00:46:44;7.90;;;2.05;;
78610;SDS011;67932;50.474;4.436;2023-03-26T00:49:11;7.93;;;1.85;;
78610;SDS011;67932;50.474;4.436;2023-03-26T00:51:39;9.07;;;2.55;;
78610;SDS011;67932;50.474;4.436;2023-03-26T00:54:05;7.68;;;1.70;;
78610;SDS011;67932;50.474;4.436;2023-03-26T00:56:35;8.95;;;1.88;;
78610;SDS011;67932;50.474;4.436;2023-03-26T00:59:01;7.45;;;1.77;;
78610;SDS011;67932;50.474;4.436;2023-03-26T01:01:27;4.95;;;1.73;;
78610;SDS011;67932;50.474;4.436;2023-03-26T01:03:55;8.10;;;2.20;;
78610;SDS011;67932;50.474;4.436;2023-03-26T01:06:27;10.25;;;2.17;;
78610;SDS011;67932;50.474;4.436;2023-03-26T01:09:11;7.90;;;2.17;;
78610;SDS011;67932;50.474;4.436;2023-03-26T01:11:38;5.07;;;1.67;;
78610;SDS011;67932;50.474;4.436;2023-03-26T01:14:05;9.65;;;2.58;;
78610;SDS011;67932;50.474;4.436;2023-03-26T01:19:01;13.57;;;2.83;;
78610;SDS011;67932;50.474;4.436;2023-03-26T01:21:27;13.63;;;2.60;;
78610;SDS011;67932;50.474;4.436;2023-03-26T01:24:06;11.88;;;2.45;;
78610;SDS011;67932;50.474;4.436;2023-03-26T01:29:28;5.65;;;2.00;;
78610;SDS011;67932;50.474;4.436;2023-03-26T01:32:04;8.65;;;1.55;;
78610;SDS011;67932;50.474;4.436;2023-03-26T01:39:34;9.02;;;1.90;;
78610;SDS011;67932;50.474;4.436;2023-03-26T01:42:06;7.93;;;2.10;;
78610;SDS011;67932;50.474;4.436;2023-03-26T01:44:47;19.30;;;2.78;;
78610;SDS011;67932;50.474;4.436;2023-03-26T01:47:16;9.60;;;2.63;;
78610;SDS011;67932;50.474;4.436;2023-03-26T01:49:42;9.80;;;2.95;;
78610;SDS011;67932;50.474;4.436;2023-03-26T01:52:13;9.60;;;3.67;;
78610;SDS011;67932;50.474;4.436;2023-03-26T01:54:40;8.77;;;3.15;;
78610;SDS011;67932;50.474;4.436;2023-03-26T02:02:44;13.43;;;3.92;;
78610;SDS011;67932;50.474;4.436;2023-03-26T02:05:19;8.98;;;3.53;;
78610;SDS011;67932;50.474;4.436;2023-03-26T02:07:48;11.48;;;3.13;;
78610;SDS011;67932;50.474;4.436;2023-03-26T02:10:19;10.05;;;3.30;;
78610;SDS011;67932;50.474;4.436;2023-03-26T02:12:46;9.77;;;3.40;;
78610;SDS011;67932;50.474;4.436;2023-03-26T02:15:12;9.75;;;3.72;;
78610;SDS011;67932;50.474;4.436;2023-03-26T02:17:39;11.77;;;3.10;;
78610;SDS011;67932;50.474;4.436;2023-03-26T02:20:09;9.57;;;3.80;;
78610;SDS011;67932;50.474;4.436;2023-03-26T02:22:37;12.32;;;3.95;;
78610;SDS011;67932;50.474;4.436;2023-03-26T02:25:08;10.77;;;3.17;;
78610;SDS011;67932;50.474;4.436;2023-03-26T02:27:35;8.23;;;2.78;;
78610;SDS011;67932;50.474;4.436;2023-03-26T02:30:02;12.43;;;3.42;;
78610;SDS011;67932;50.474;4.436;2023-03-26T02:32:29;6.90;;;2.80;;
78610;SDS011;67932;50.474;4.436;2023-03-26T02:34:55;12.15;;;3.10;;
78610;SDS011;67932;50.474;4.436;2023-03-26T02:37:21;10.77;;;2.83;;
78610;SDS011;67932;50.474;4.436;2023-03-26T02:39:47;12.05;;;2.45;;
78610;SDS011;67932;50.474;4.436;2023-03-26T02:42:13;11.10;;;2.88;;
78610;SDS011;67932;50.474;4.436;2023-03-26T02:44:40;13.23;;;2.58;;
78610;SDS011;67932;50.474;4.436;2023-03-26T02:47:06;7.40;;;2.17;;
78610;SDS011;67932;50.474;4.436;2023-03-26T02:49:32;13.25;;;2.55;;
78610;SDS011;67932;50.474;4.436;2023-03-26T02:51:59;11.93;;;3.13;;
78610;SDS011;67932;50.474;4.436;2023-03-26T02:54:25;7.25;;;2.22;;
78610;SDS011;67932;50.474;4.436;2023-03-26T02:56:51;13.70;;;2.28;;
78610;SDS011;67932;50.474;4.436;2023-03-26T02:59:17;13.48;;;2.58;;
78610;SDS011;67932;50.474;4.436;2023-03-26T03:01:45;5.45;;;1.77;;
78610;SDS011;67932;50.474;4.436;2023-03-26T03:04:11;7.75;;;1.98;;
78610;SDS011;67932;50.474;4.436;2023-03-26T03:06:37;8.15;;;2.00;;
78610;SDS011;67932;50.474;4.436;2023-03-26T03:09:05;7.55;;;2.10;;
78610;SDS011;67932;50.474;4.436;2023-03-26T03:11:33;8.15;;;1.73;;
78610;SDS011;67932;50.474;4.436;2023-03-26T03:13:59;11.88;;;1.90;;
78610;SDS011;67932;50.474;4.436;2023-03-26T03:16:25;5.70;;;1.85;;
78610;SDS011;67932;50.474;4.436;2023-03-26T03:18:52;7.30;;;1.90;;
78610;SDS011;67932;50.474;4.436;2023-03-26T03:21:20;7.30;;;2.13;;
78610;SDS011;67932;50.474;4.436;2023-03-26T03:23:47;9.52;;;1.85;;
78610;SDS011;67932;50.474;4.436;2023-03-26T03:26:14;6.03;;;1.83;;
78610;SDS011;67932;50.474;4.436;2023-03-26T03:28:40;8.90;;;1.50;;
78610;SDS011;67932;50.474;4.436;2023-03-26T03:31:06;6.97;;;1.63;;
78610;SDS011;67932;50.474;4.436;2023-03-26T03:33:33;12.85;;;2.13;;
78610;SDS011;67932;50.474;4.436;2023-03-26T03:35:59;10.77;;;1.60;;
78610;SDS011;67932;50.474;4.436;2023-03-26T03:38:25;11.88;;;2.13;;
78610;SDS011;67932;50.474;4.436;2023-03-26T03:40:51;6.95;;;1.50;;
78610;SDS011;67932;50.474;4.436;2023-03-26T03:43:19;7.32;;;1.60;;
78610;SDS011;67932;50.474;4.436;2023-03-26T03:45:45;10.27;;;1.70;;
78610;SDS011;67932;50.474;4.436;2023-03-26T03:48:11;9.98;;;1.33;;
78610;SDS011;67932;50.474;4.436;2023-03-26T03:50:37;6.68;;;1.45;;
78610;SDS011;67932;50.474;4.436;2023-03-26T03:53:03;8.32;;;2.22;;
78610;SDS011;67932;50.474;4.436;2023-03-26T03:55:29;9.63;;;1.92;;
78610;SDS011;67932;50.474;4.436;2023-03-26T03:57:57;7.80;;;2.50;;
78610;SDS011;67932;50.474;4.436;2023-03-26T04:00:23;9.02;;;1.63;;
78610;SDS011;67932;50.474;4.436;2023-03-26T04:02:50;6.63;;;1.58;;
78610;SDS011;67932;50.474;4.436;2023-03-26T04:05:18;9.55;;;1.60;;
78610;SDS011;67932;50.474;4.436;2023-03-26T04:07:44;7.38;;;2.15;;
78610;SDS011;67932;50.474;4.436;2023-03-26T04:10:11;6.15;;;1.90;;
78610;SDS011;67932;50.474;4.436;2023-03-26T04:12:39;6.07;;;1.25;;
78610;SDS011;67932;50.474;4.436;2023-03-26T04:15:05;3.70;;;0.88;;
78610;SDS011;67932;50.474;4.436;2023-03-26T04:17:31;2.47;;;0.77;;
78610;SDS011;67932;50.474;4.436;2023-03-26T04:19:58;7.47;;;1.27;;
78610;SDS011;67932;50.474;4.436;2023-03-26T04:22:37;4.30;;;0.90;;
78610;SDS011;67932;50.474;4.436;2023-03-26T04:25:03;3.90;;;1.40;;
78610;SDS011;67932;50.474;4.436;2023-03-26T04:27:30;3.58;;;1.13;;
78610;SDS011;67932;50.474;4.436;2023-03-26T04:29:59;6.00;;;1.77;;
78610;SDS011;67932;50.474;4.436;2023-03-26T04:32:27;3.53;;;0.80;;
78610;SDS011;67932;50.474;4.436;2023-03-26T04:34:54;7.18;;;1.25;;
78610;SDS011;67932;50.474;4.436;2023-03-26T04:37:27;4.82;;;1.50;;
78610;SDS011;67932;50.474;4.436;2023-03-26T04:39:58;5.22;;;1.52;;
78610;SDS011;67932;50.474;4.436;2023-03-26T04:42:24;5.50;;;1.70;;
78610;SDS011;67932;50.474;4.436;2023-03-26T04:44:52;6.90;;;1.35;;
78610;SDS011;67932;50.474;4.436;2023-03-26T04:47:18;4.38;;;1.23;;
78610;SDS011;67932;50.474;4.436;2023-03-26T04:49:45;4.13;;;1.20;;
78610;SDS011;67932;50.474;4.436;2023-03-26T04:52:11;6.75;;;1.00;;
78610;SDS011;67932;50.474;4.436;2023-03-26T04:54:38;4.43;;;1.00;;
78610;SDS011;67932;50.474;4.436;2023-03-26T04:57:06;7.53;;;1.25;;
78610;SDS011;67932;50.474;4.436;2023-03-26T04:59:33;1.88;;;0.93;;
78610;SDS011;67932;50.474;4.436;2023-03-26T05:02:02;3.30;;;0.93;;
78610;SDS011;67932;50.474;4.436;2023-03-26T05:04:28;6.15;;;1.02;;
78610;SDS011;67932;50.474;4.436;2023-03-26T05:06:55;5.25;;;1.00;;
78610;SDS011;67932;50.474;4.436;2023-03-26T05:09:26;3.80;;;1.15;;
78610;SDS011;67932;50.474;4.436;2023-03-26T05:11:52;7.90;;;1.67;;
78610;SDS011;67932;50.474;4.436;2023-03-26T05:14:18;3.08;;;0.95;;
78610;SDS011;67932;50.474;4.436;2023-03-26T05:16:45;3.83;;;1.02;;
78610;SDS011;67932;50.474;4.436;2023-03-26T05:19:11;2.83;;;1.10;;
78610;SDS011;67932;50.474;4.436;2023-03-26T05:21:37;4.25;;;1.05;;
78610;SDS011;67932;50.474;4.436;2023-03-26T05:24:04;3.50;;;0.80;;
78610;SDS011;67932;50.474;4.436;2023-03-26T05:26:31;5.43;;;0.70;;
78610;SDS011;67932;50.474;4.436;2023-03-26T05:28:57;5.57;;;0.98;;
78610;SDS011;67932;50.474;4.436;2023-03-26T05:31:23;4.85;;;1.23;;
78610;SDS011;67932;50.474;4.436;2023-03-26T05:33:51;3.83;;;0.80;;
78610;SDS011;67932;50.474;4.436;2023-03-26T05:36:18;4.50;;;0.57;;
78610;SDS011;67932;50.474;4.436;2023-03-26T05:38:45;2.65;;;0.65;;
78610;SDS011;67932;50.474;4.436;2023-03-26T05:41:14;1.27;;;0.38;;
78610;SDS011;67932;50.474;4.436;2023-03-26T05:43:41;1.30;;;0.50;;
78610;SDS011;67932;50.474;4.436;2023-03-26T05:46:09;2.22;;;0.60;;
78610;SDS011;67932;50.474;4.436;2023-03-26T05:48:35;2.10;;;0.57;;
78610;SDS011;67932;50.474;4.436;2023-03-26T05:51:02;1.83;;;0.82;;
78610;SDS011;67932;50.474;4.436;2023-03-26T05:53:29;1.95;;;0.57;;
78610;SDS011;67932;50.474;4.436;2023-03-26T05:55:55;1.52;;;0.52;;
78610;SDS011;67932;50.474;4.436;2023-03-26T05:58:28;2.67;;;0.63;;
78610;SDS011;67932;50.474;4.436;2023-03-26T06:00:59;2.42;;;0.43;;
78610;SDS011;67932;50.474;4.436;2023-03-26T06:03:29;2.35;;;0.55;;
78610;SDS011;67932;50.474;4.436;2023-03-26T06:05:57;2.40;;;0.43;;
78610;SDS011;67932;50.474;4.436;2023-03-26T06:08:23;1.90;;;0.70;;
78610;SDS011;67932;50.474;4.436;2023-03-26T06:10:49;2.97;;;0.80;;
78610;SDS011;67932;50.474;4.436;2023-03-26T06:13:16;4.95;;;1.02;;
78610;SDS011;67932;50.474;4.436;2023-03-26T06:15:43;4.68;;;1.35;;
78610;SDS011;67932;50.474;4.436;2023-03-26T06:18:09;2.15;;;1.10;;
78610;SDS011;67932;50.474;4.436;2023-03-26T06:20:35;3.97;;;1.05;;
78610;SDS011;67932;50.474;4.436;2023-03-26T06:23:01;3.97;;;1.20;;
78610;SDS011;67932;50.474;4.436;2023-03-26T06:25:28;4.07;;;1.27;;
78610;SDS011;67932;50.474;4.436;2023-03-26T06:27:54;2.95;;;1.05;;
78610;SDS011;67932;50.474;4.436;2023-03-26T06:30:20;1.27;;;0.47;;
78610;SDS011;67932;50.474;4.436;2023-03-26T06:32:47;3.28;;;0.65;;
78610;SDS011;67932;50.474;4.436;2023-03-26T06:35:13;1.38;;;0.57;;
78610;SDS011;67932;50.474;4.436;2023-03-26T06:37:39;1.58;;;0.40;;
78610;SDS011;67932;50.474;4.436;2023-03-26T06:40:06;1.55;;;0.52;;
78610;SDS011;67932;50.474;4.436;2023-03-26T06:42:32;2.75;;;0.40;;
78610;SDS011;67932;50.474;4.436;2023-03-26T06:44:58;0.88;;;0.30;;
78610;SDS011;67932;50.474;4.436;2023-03-26T06:47:25;1.10;;;0.40;;
78610;SDS011;67932;50.474;4.436;2023-03-26T06:49:51;1.15;;;0.30;;
78610;SDS011;67932;50.474;4.436;2023-03-26T06:52:17;1.30;;;0.30;;
78610;SDS011;67932;50.474;4.436;2023-03-26T06:54:43;1.88;;;0.47;;
78610;SDS011;67932;50.474;4.436;2023-03-26T06:57:09;2.35;;;0.90;;
78610;SDS011;67932;50.474;4.436;2023-03-26T06:59:35;2.17;;;0.32;;
78610;SDS011;67932;50.474;4.436;2023-03-26T07:02:02;1.60;;;0.50;;
78610;SDS011;67932;50.474;4.436;2023-03-26T07:04:28;1.65;;;0.80;;
78610;SDS011;67932;50.474;4.436;2023-03-26T07:06:54;3.25;;;0.50;;
78610;SDS011;67932;50.474;4.436;2023-03-26T07:09:21;3.33;;;0.50;;
78610;SDS011;67932;50.474;4.436;2023-03-26T07:11:47;0.55;;;0.30;;
78610;SDS011;67932;50.474;4.436;2023-03-26T07:14:13;0.73;;;0.20;;
78610;SDS011;67932;50.474;4.436;2023-03-26T07:16:39;1.42;;;0.60;;
78610;SDS011;67932;50.474;4.436;2023-03-26T07:19:05;3.92;;;0.50;;
78610;SDS011;67932;50.474;4.436;2023-03-26T07:21:31;1.45;;;0.40;;
78610;SDS011;67932;50.474;4.436;2023-03-26T07:23:57;2.63;;;0.50;;
78610;SDS011;67932;50.474;4.436;2023-03-26T07:26:25;1.15;;;0.50;;
78610;SDS011;67932;50.474;4.436;2023-03-26T07:29:00;2.38;;;0.70;;
78610;SDS011;67932;50.474;4.436;2023-03-26T07:31:37;4.80;;;0.70;;
78610;SDS011;67932;50.474;4.436;2023-03-26T07:34:10;1.92;;;0.60;;
78610;SDS011;67932;50.474;4.436;2023-03-26T07:41:49;1.58;;;0.65;;
78610;SDS011;67932;50.474;4.436;2023-03-26T07:44:24;1.95;;;0.90;;
78610;SDS011;67932;50.474;4.436;2023-03-26T07:46:56;2.90;;;0.93;;
78610;SDS011;67932;50.474;4.436;2023-03-26T07:49:24;3.20;;;1.02;;
78610;SDS011;67932;50.474;4.436;2023-03-26T07:51:51;0.98;;;0.50;;
78610;SDS011;67932;50.474;4.436;2023-03-26T07:54:17;3.38;;;0.82;;
78610;SDS011;67932;50.474;4.436;2023-03-26T07:56:54;1.40;;;1.00;;
78610;SDS011;67932;50.474;4.436;2023-03-26T08:01:52;3.55;;;1.00;;
78610;SDS011;67932;50.474;4.436;2023-03-26T08:06:53;3.70;;;0.93;;
78610;SDS011;67932;50.474;4.436;2023-03-26T08:09:33;8.73;;;1.20;;
78610;SDS011;67932;50.474;4.436;2023-03-26T08:12:04;2.63;;;0.95;;
78610;SDS011;67932;50.474;4.436;2023-03-26T08:14:40;3.30;;;1.33;;
78610;SDS011;67932;50.474;4.436;2023-03-26T08:17:11;2.33;;;0.90;;
78610;SDS011;67932;50.474;4.436;2023-03-26T08:27:38;2.13;;;0.70;;
78610;SDS011;67932;50.474;4.436;2023-03-26T08:32:34;1.73;;;1.08;;
78610;SDS011;67932;50.474;4.436;2023-03-26T08:35:00;2.35;;;1.27;;
78610;SDS011;67932;50.474;4.436;2023-03-26T08:37:29;2.05;;;1.48;;
78610;SDS011;67932;50.474;4.436;2023-03-26T08:39:55;1.45;;;0.98;;
78610;SDS011;67932;50.474;4.436;2023-03-26T09:00:48;1.30;;;0.60;;
78610;SDS011;67932;50.474;4.436;2023-03-26T09:08:47;1.10;;;0.60;;
78610;SDS011;67932;50.474;4.436;2023-03-26T09:19:07;0.70;;;0.50;;
78610;SDS011;67932;50.474;4.436;2023-03-26T09:24:19;0.80;;;0.70;;
78610;SDS011;67932;50.474;4.436;2023-03-26T09:32:12;2.00;;;0.60;;
78610;SDS011;67932;50.474;4.436;2023-03-26T09:35:27;1.83;;;0.60;;
78610;SDS011;67932;50.474;4.436;2023-03-26T09:37:33;1.98;;;1.05;;
78610;SDS011;67932;50.474;4.436;2023-03-26T09:40:12;0.90;;;0.60;;
78610;SDS011;67932;50.474;4.436;2023-03-26T09:58:47;1.95;;;1.20;;
78610;SDS011;67932;50.474;4.436;2023-03-26T10:00:59;1.42;;;1.30;;
78610;SDS011;67932;50.474;4.436;2023-03-26T10:06:25;3.30;;;1.02;;
78610;SDS011;67932;50.474;4.436;2023-03-26T10:14:20;1.45;;;1.15;;
78610;SDS011;67932;50.474;4.436;2023-03-26T10:25:04;3.55;;;1.35;;
78610;SDS011;67932;50.474;4.436;2023-03-26T10:35:47;1.25;;;0.73;;
78610;SDS011;67932;50.474;4.436;2023-03-26T10:51:40;0.85;;;0.65;;
78610;SDS011;67932;50.474;4.436;2023-03-26T10:56:44;0.75;;;0.60;;
78610;SDS011;67932;50.474;4.436;2023-03-26T10:59:12;4.22;;;2.50;;
78610;SDS011;67932;50.474;4.436;2023-03-26T11:01:45;1.52;;;0.70;;
78610;SDS011;67932;50.474;4.436;2023-03-26T11:09:42;1.95;;;0.55;;
78610;SDS011;67932;50.474;4.436;2023-03-26T11:14:46;0.90;;;0.40;;
78610;SDS011;67932;50.474;4.436;2023-03-26T11:20:06;2.33;;;0.50;;
78610;SDS011;67932;50.474;4.436;2023-03-26T11:27:46;1.88;;;1.20;;
78610;SDS011;67932;50.474;4.436;2023-03-26T11:30:57;1.10;;;0.73;;
78610;SDS011;67932;50.474;4.436;2023-03-26T11:33:07;3.17;;;0.50;;
78610;SDS011;67932;50.474;4.436;2023-03-26T11:35:43;0.85;;;0.60;;
78610;SDS011;67932;50.474;4.436;2023-03-26T11:40:40;1.25;;;0.40;;
78610;SDS011;67932;50.474;4.436;2023-03-26T11:43:08;0.85;;;0.57;;
78610;SDS011;67932;50.474;4.436;2023-03-26T11:45:36;1.77;;;0.40;;
78610;SDS011;67932;50.474;4.436;2023-03-26T11:50:33;1.52;;;0.52;;
78610;SDS011;67932;50.474;4.436;2023-03-26T11:53:01;0.60;;;0.47;;
78610;SDS011;67932;50.474;4.436;2023-03-26T11:55:36;0.73;;;0.47;;
78610;SDS011;67932;50.474;4.436;2023-03-26T11:58:05;0.35;;;0.32;;
78610;SDS011;67932;50.474;4.436;2023-03-26T12:00:39;0.45;;;0.40;;
78610;SDS011;67932;50.474;4.436;2023-03-26T12:03:06;0.90;;;0.60;;
78610;SDS011;67932;50.474;4.436;2023-03-26T12:05:47;1.10;;;0.50;;
78610;SDS011;67932;50.474;4.436;2023-03-26T12:08:18;1.35;;;0.85;;
78610;SDS011;67932;50.474;4.436;2023-03-26T12:10:45;0.60;;;0.35;;
78610;SDS011;67932;50.474;4.436;2023-03-26T12:13:27;1.10;;;0.80;;
78610;SDS011;67932;50.474;4.436;2023-03-26T12:16:03;1.05;;;0.70;;
78610;SDS011;67932;50.474;4.436;2023-03-26T12:18:30;1.52;;;0.63;;
78610;SDS011;67932;50.474;4.436;2023-03-26T12:21:07;0.90;;;0.30;;
78610;SDS011;67932;50.474;4.436;2023-03-26T12:26:19;1.20;;;0.70;;
78610;SDS011;67932;50.474;4.436;2023-03-26T12:28:47;1.55;;;0.70;;
78610;SDS011;67932;50.474;4.436;2023-03-26T12:31:14;0.95;;;0.60;;
78610;SDS011;67932;50.474;4.436;2023-03-26T12:33:44;2.78;;;1.15;;
78610;SDS011;67932;50.474;4.436;2023-03-26T12:36:27;0.73;;;0.73;;
78610;SDS011;67932;50.474;4.436;2023-03-26T12:38:55;1.35;;;0.80;;
78610;SDS011;67932;50.474;4.436;2023-03-26T12:41:31;2.00;;;1.40;;
78610;SDS011;67932;50.474;4.436;2023-03-26T12:44:13;3.00;;;2.15;;
78610;SDS011;67932;50.474;4.436;2023-03-26T12:46:42;1.38;;;1.02;;
78610;SDS011;67932;50.474;4.436;2023-03-26T12:49:11;2.03;;;1.20;;
78610;SDS011;67932;50.474;4.436;2023-03-26T12:51:38;1.67;;;1.27;;
78610;SDS011;67932;50.474;4.436;2023-03-26T13:00:02;2.42;;;1.60;;
78610;SDS011;67932;50.474;4.436;2023-03-26T13:20:32;2.70;;;1.85;;
78610;SDS011;67932;50.474;4.436;2023-03-26T13:23:12;2.22;;;1.50;;
78610;SDS011;67932;50.474;4.436;2023-03-26T13:35:54;1.10;;;0.93;;
78610;SDS011;67932;50.474;4.436;2023-03-26T13:41:24;1.65;;;1.02;;
78610;SDS011;67932;50.474;4.436;2023-03-26T13:46:45;1.15;;;1.05;;
78610;SDS011;67932;50.474;4.436;2023-03-26T13:49:12;1.90;;;1.70;;
78610;SDS011;67932;50.474;4.436;2023-03-26T13:57:33;1.33;;;0.95;;
78610;SDS011;67932;50.474;4.436;2023-03-26T13:59:35;1.30;;;1.00;;
78610;SDS011;67932;50.474;4.436;2023-03-26T14:02:10;3.17;;;1.50;;
78610;SDS011;67932;50.474;4.436;2023-03-26T14:04:39;2.17;;;1.33;;
78610;SDS011;67932;50.474;4.436;2023-03-26T14:07:19;1.27;;;0.93;;
78610;SDS011;67932;50.474;4.436;2023-03-26T14:09:52;1.27;;;0.93;;
78610;SDS011;67932;50.474;4.436;2023-03-26T14:17:13;2.25;;;1.63;;
78610;SDS011;67932;50.474;4.436;2023-03-26T14:38:04;2.10;;;1.52;;
78610;SDS011;67932;50.474;4.436;2023-03-26T14:53:35;2.13;;;1.23;;
78610;SDS011;67932;50.474;4.436;2023-03-26T14:56:14;2.92;;;1.50;;
78610;SDS011;67932;50.474;4.436;2023-03-26T15:12:17;3.10;;;1.98;;
78610;SDS011;67932;50.474;4.436;2023-03-26T15:31:34;4.57;;;1.80;;
78610;SDS011;67932;50.474;4.436;2023-03-26T15:47:47;3.47;;;2.47;;
78610;SDS011;67932;50.474;4.436;2023-03-26T15:58:22;7.00;;;3.13;;
78610;SDS011;67932;50.474;4.436;2023-03-26T16:00:53;4.53;;;2.78;;
78610;SDS011;67932;50.474;4.436;2023-03-26T16:03:30;3.50;;;2.65;;
78610;SDS011;67932;50.474;4.436;2023-03-26T16:11:01;5.45;;;2.60;;
78610;SDS011;67932;50.474;4.436;2023-03-26T16:13:41;5.05;;;2.28;;
78610;SDS011;67932;50.474;4.436;2023-03-26T16:16:16;3.70;;;2.72;;
78610;SDS011;67932;50.474;4.436;2023-03-26T16:18:44;4.28;;;2.85;;
78610;SDS011;67932;50.474;4.436;2023-03-26T16:38:46;8.63;;;4.82;;
78610;SDS011;67932;50.474;4.436;2023-03-26T16:43:45;8.15;;;4.38;;
78610;SDS011;67932;50.474;4.436;2023-03-26T16:54:26;9.85;;;4.95;;
78610;SDS011;67932;50.474;4.436;2023-03-26T16:57:15;9.38;;;4.97;;
78610;SDS011;67932;50.474;4.436;2023-03-26T17:04:46;15.27;;;7.03;;
78610;SDS011;67932;50.474;4.436;2023-03-26T17:22:58;11.38;;;6.30;;
78610;SDS011;67932;50.474;4.436;2023-03-26T17:27:57;11.48;;;5.03;;
78610;SDS011;67932;50.474;4.436;2023-03-26T17:30:53;10.57;;;5.10;;
78610;SDS011;67932;50.474;4.436;2023-03-26T17:36:12;9.25;;;4.95;;
78610;SDS011;67932;50.474;4.436;2023-03-26T17:41:04;11.05;;;4.40;;
78610;SDS011;67932;50.474;4.436;2023-03-26T17:46:00;11.68;;;4.40;;
78610;SDS011;67932;50.474;4.436;2023-03-26T17:48:27;10.73;;;4.00;;
78610;SDS011;67932;50.474;4.436;2023-03-26T17:53:44;8.63;;;3.38;;
78610;SDS011;67932;50.474;4.436;2023-03-26T17:56:14;7.63;;;4.22;;
78610;SDS011;67932;50.474;4.436;2023-03-26T18:03:40;8.65;;;4.32;;
78610;SDS011;67932;50.474;4.436;2023-03-26T18:06:12;13.40;;;4.60;;
78610;SDS011;67932;50.474;4.436;2023-03-26T18:08:48;9.88;;;4.50;;
78610;SDS011;67932;50.474;4.436;2023-03-26T18:16:39;10.32;;;4.78;;
78610;SDS011;67932;50.474;4.436;2023-03-26T18:19:12;12.45;;;4.25;;
78610;SDS011;67932;50.474;4.436;2023-03-26T18:21:43;9.27;;;4.20;;
78610;SDS011;67932;50.474;4.436;2023-03-26T18:24:14;9.52;;;3.95;;
78610;SDS011;67932;50.474;4.436;2023-03-26T18:26:42;10.23;;;3.90;;
78610;SDS011;67932;50.474;4.436;2023-03-26T18:29:22;9.90;;;3.38;;
78610;SDS011;67932;50.474;4.436;2023-03-26T18:31:59;9.23;;;3.72;;
78610;SDS011;67932;50.474;4.436;2023-03-26T18:34:28;9.30;;;3.55;;
78610;SDS011;67932;50.474;4.436;2023-03-26T18:39:27;16.02;;;4.05;;
78610;SDS011;67932;50.474;4.436;2023-03-26T18:41:53;10.95;;;3.03;;
78610;SDS011;67932;50.474;4.436;2023-03-26T18:44:20;11.15;;;3.13;;
78610;SDS011;67932;50.474;4.436;2023-03-26T18:46:46;10.00;;;3.47;;
78610;SDS011;67932;50.474;4.436;2023-03-26T18:49:13;8.20;;;3.42;;
78610;SDS011;67932;50.474;4.436;2023-03-26T18:51:43;8.63;;;3.70;;
78610;SDS011;67932;50.474;4.436;2023-03-26T18:54:12;12.85;;;3.33;;
78610;SDS011;67932;50.474;4.436;2023-03-26T18:56:41;9.05;;;3.30;;
78610;SDS011;67932;50.474;4.436;2023-03-26T18:59:27;7.90;;;2.80;;
78610;SDS011;67932;50.474;4.436;2023-03-26T19:01:55;7.50;;;2.30;;
78610;SDS011;67932;50.474;4.436;2023-03-26T19:04:22;8.95;;;2.92;;
78610;SDS011;67932;50.474;4.436;2023-03-26T19:06:49;6.45;;;2.08;;
78610;SDS011;67932;50.474;4.436;2023-03-26T19:09:19;10.20;;;2.85;;
78610;SDS011;67932;50.474;4.436;2023-03-26T19:11:47;6.07;;;2.85;;
78610;SDS011;67932;50.474;4.436;2023-03-26T19:14:14;7.05;;;2.33;;
78610;SDS011;67932;50.474;4.436;2023-03-26T19:16:41;6.75;;;2.38;;
78610;SDS011;67932;50.474;4.436;2023-03-26T19:19:12;10.23;;;2.70;;
78610;SDS011;67932;50.474;4.436;2023-03-26T19:21:41;6.60;;;2.13;;
78610;SDS011;67932;50.474;4.436;2023-03-26T19:24:07;5.75;;;2.35;;
78610;SDS011;67932;50.474;4.436;2023-03-26T19:26:34;8.75;;;2.10;;
78610;SDS011;67932;50.474;4.436;2023-03-26T19:29:00;8.25;;;2.95;;
78610;SDS011;67932;50.474;4.436;2023-03-26T19:31:36;8.85;;;2.30;;
78610;SDS011;67932;50.474;4.436;2023-03-26T19:39:16;3.83;;;1.92;;
78610;SDS011;67932;50.474;4.436;2023-03-26T19:41:42;11.75;;;2.70;;
78610;SDS011;67932;50.474;4.436;2023-03-26T19:44:18;9.05;;;2.60;;
78610;SDS011;67932;50.474;4.436;2023-03-26T19:46:45;8.25;;;2.25;;
78610;SDS011;67932;50.474;4.436;2023-03-26T19:52:04;5.22;;;2.05;;
78610;SDS011;67932;50.474;4.436;2023-03-26T19:57:11;7.10;;;1.70;;
78610;SDS011;67932;50.474;4.436;2023-03-26T19:59:38;6.88;;;2.20;;
78610;SDS011;67932;50.474;4.436;2023-03-26T20:02:08;7.55;;;1.95;;
78610;SDS011;67932;50.474;4.436;2023-03-26T20:04:35;8.23;;;2.22;;
78610;SDS011;67932;50.474;4.436;2023-03-26T20:07:01;6.43;;;1.70;;
78610;SDS011;67932;50.474;4.436;2023-03-26T20:09:27;5.30;;;1.80;;
78610;SDS011;67932;50.474;4.436;2023-03-26T20:11:53;3.50;;;2.08;;
78610;SDS011;67932;50.474;4.436;2023-03-26T20:14:19;4.55;;;1.48;;
78610;SDS011;67932;50.474;4.436;2023-03-26T20:16:49;11.88;;;2.42;;
78610;SDS011;67932;50.474;4.436;2023-03-26T20:19:16;7.80;;;1.83;;
78610;SDS011;67932;50.474;4.436;2023-03-26T20:21:43;8.10;;;2.15;;
78610;SDS011;67932;50.474;4.436;2023-03-26T20:24:13;6.95;;;1.85;;
78610;SDS011;67932;50.474;4.436;2023-03-26T20:26:40;6.05;;;1.85;;
78610;SDS011;67932;50.474;4.436;2023-03-26T20:29:06;3.90;;;1.45;;
78610;SDS011;67932;50.474;4.436;2023-03-26T20:31:32;8.23;;;1.88;;
78610;SDS011;67932;50.474;4.436;2023-03-26T20:33:58;6.80;;;1.40;;
78610;SDS011;67932;50.474;4.436;2023-03-26T20:36:24;6.60;;;1.85;;
78610;SDS011;67932;50.474;4.436;2023-03-26T20:38:53;3.92;;;1.40;;
78610;SDS011;67932;50.474;4.436;2023-03-26T20:41:21;6.53;;;1.80;;
78610;SDS011;67932;50.474;4.436;2023-03-26T20:43:52;4.53;;;1.40;;
78610;SDS011;67932;50.474;4.436;2023-03-26T20:46:18;4.65;;;1.42;;
78610;SDS011;67932;50.474;4.436;2023-03-26T20:48:45;3.88;;;1.77;;
78610;SDS011;67932;50.474;4.436;2023-03-26T20:51:11;8.43;;;2.53;;
78610;SDS011;67932;50.474;4.436;2023-03-26T20:53:42;7.18;;;1.45;;
78610;SDS011;67932;50.474;4.436;2023-03-26T20:56:12;6.63;;;1.45;;
78610;SDS011;67932;50.474;4.436;2023-03-26T20:58:39;7.18;;;1.70;;
78610;SDS011;67932;50.474;4.436;2023-03-26T21:01:07;6.57;;;1.42;;
78610;SDS011;67932;50.474;4.436;2023-03-26T21:03:34;3.97;;;1.17;;
78610;SDS011;67932;50.474;4.436;2023-03-26T21:06:00;6.00;;;1.15;;
78610;SDS011;67932;50.474;4.436;2023-03-26T21:08:27;6.60;;;1.45;;
78610;SDS011;67932;50.474;4.436;2023-03-26T21:10:59;8.77;;;1.55;;
78610;SDS011;67932;50.474;4.436;2023-03-26T21:16:02;5.05;;;1.27;;
78610;SDS011;67932;50.474;4.436;2023-03-26T21:18:28;4.78;;;1.23;;